sensor_id;sensor_type;location;lat;lon;timestamp;temperature;humidity
14798;DHT22;7490;63.708;20.368;2024-03-23T00:56:00;1.70;99.90
14798;DHT22;7490;63.708;20.368;2024-03-23T00:58:25;1.70;99.90
14798;DHT22;7490;63.708;20.368;2024-03-23T01:00:51;1.70;99.90
14798;DHT22;7490;63.708;20.368;2024-03-23T01:03:16;1.80;99.90
14798;DHT22;7490;63.708;20.368;2024-03-23T01:05:42;1.80;99.90
14798;DHT22;7490;63.708;20.368;2024-03-23T01:08:08;1.80;99.90
14798;DHT22;7490;63.708;20.368;2024-03-23T01:10:33;1.90;99.90
14798;DHT22;7490;63.708;20.368;2024-03-23T01:12:59;1.80;99.90
14798;DHT22;7490;63.708;20.368;2024-03-23T01:15:24;1.90;99.90
14798;DHT22;7490;63.708;20.368;2024-03-23T01:17:50;1.90;99.90
14798;DHT22;7490;63.708;20.368;2024-03-23T01:20:15;1.90;99.90
14798;DHT22;7490;63.708;20.368;2024-03-23T01:22:42;1.90;99.90
14798;DHT22;7490;63.708;20.368;2024-03-23T01:25:07;2.00;99.90
14798;DHT22;7490;63.708;20.368;2024-03-23T01:27:33;2.00;99.90
14798;DHT22;7490;63.708;20.368;2024-03-23T01:29:59;2.00;99.90
14798;DHT22;7490;63.708;20.368;2024-03-23T01:32:25;2.00;99.90
14798;DHT22;7490;63.708;20.368;2024-03-23T01:34:51;2.00;99.90
14798;DHT22;7490;63.708;20.368;2024-03-23T01:37:16;2.00;99.90
14798;DHT22;7490;63.708;20.368;2024-03-23T01:39:42;2.00;99.90
14798;DHT22;7490;63.708;20.368;2024-03-23T01:42:07;1.90;99.90
14798;DHT22;7490;63.708;20.368;2024-03-23T01:44:33;1.90;99.90
14798;DHT22;7490;63.708;20.368;2024-03-23T01:46:59;2.00;99.90
14798;DHT22;7490;63.708;20.368;2024-03-23T01:49:24;2.00;99.90
14798;DHT22;7490;63.708;20.368;2024-03-23T01:51:50;2.00;99.90
14798;DHT22;7490;63.708;20.368;2024-03-23T01:54:16;2.00;99.90
14798;DHT22;7490;63.708;20.368;2024-03-23T01:56:42;2.00;99.90
14798;DHT22;7490;63.708;20.368;2024-03-23T01:59:07;2.00;99.90
14798;DHT22;7490;63.708;20.368;2024-03-23T02:01:35;2.00;99.90
14798;DHT22;7490;63.708;20.368;2024-03-23T02:04:04;2.00;99.90
14798;DHT22;7490;63.708;20.368;2024-03-23T02:06:29;2.00;99.90
14798;DHT22;7490;63.708;20.368;2024-03-23T02:08:55;2.00;99.90
14798;DHT22;7490;63.708;20.368;2024-03-23T02:11:21;2.00;99.90
14798;DHT22;7490;63.708;20.368;2024-03-23T02:13:47;2.00;99.90
14798;DHT22;7490;63.708;20.368;2024-03-23T02:16:13;2.00;99.90
14798;DHT22;7490;63.708;20.368;2024-03-23T02:18:39;1.90;99.90
14798;DHT22;7490;63.708;20.368;2024-03-23T02:21:04;2.00;99.90
14798;DHT22;7490;63.708;20.368;2024-03-23T02:23:30;2.00;99.90
14798;DHT22;7490;63.708;20.368;2024-03-23T02:25:56;1.90;99.90
14798;DHT22;7490;63.708;20.368;2024-03-23T02:28:21;1.90;99.90
14798;DHT22;7490;63.708;20.368;2024-03-23T02:30:51;1.80;99.90
14798;DHT22;7490;63.708;20.368;2024-03-23T02:33:17;1.80;99.90
14798;DHT22;7490;63.708;20.368;2024-03-23T02:35:46;1.80;99.90
14798;DHT22;7490;63.708;20.368;2024-03-23T02:38:12;1.80;99.90
14798;DHT22;7490;63.708;20.368;2024-03-23T02:40:38;1.80;99.90
14798;DHT22;7490;63.708;20.368;2024-03-23T02:43:04;1.80;99.90
14798;DHT22;7490;63.708;20.368;2024-03-23T02:45:29;1.80;99.90
14798;DHT22;7490;63.708;20.368;2024-03-23T02:47:55;1.80;99.90
14798;DHT22;7490;63.708;20.368;2024-03-23T02:50:22;1.80;99.90
14798;DHT22;7490;63.708;20.368;2024-03-23T02:52:48;1.80;99.90
14798;DHT22;7490;63.708;20.368;2024-03-23T02:55:14;1.80;99.90
14798;DHT22;7490;63.708;20.368;2024-03-23T02:57:39;1.80;99.90
14798;DHT22;7490;63.708;20.368;2024-03-23T03:00:06;1.70;99.90
14798;DHT22;7490;63.708;20.368;2024-03-23T03:02:33;1.70;99.90
14798;DHT22;7490;63.708;20.368;2024-03-23T03:04:58;1.60;99.90
14798;DHT22;7490;63.708;20.368;2024-03-23T03:07:24;1.50;99.90
14798;DHT22;7490;63.708;20.368;2024-03-23T03:09:49;1.50;99.90
14798;DHT22;7490;63.708;20.368;2024-03-23T03:12:15;1.50;99.90
14798;DHT22;7490;63.708;20.368;2024-03-23T03:14:41;1.50;99.90
14798;DHT22;7490;63.708;20.368;2024-03-23T03:17:06;1.60;99.90
14798;DHT22;7490;63.708;20.368;2024-03-23T03:19:32;1.50;99.90
14798;DHT22;7490;63.708;20.368;2024-03-23T03:21:58;1.60;99.90
14798;DHT22;7490;63.708;20.368;2024-03-23T03:24:23;1.60;99.90
14798;DHT22;7490;63.708;20.368;2024-03-23T03:26:49;1.60;99.90
14798;DHT22;7490;63.708;20.368;2024-03-23T03:29:15;1.60;99.90
14798;DHT22;7490;63.708;20.368;2024-03-23T03:31:41;1.60;99.90
14798;DHT22;7490;63.708;20.368;2024-03-23T03:34:08;1.60;99.90
14798;DHT22;7490;63.708;20.368;2024-03-23T03:36:33;1.60;99.90
14798;DHT22;7490;63.708;20.368;2024-03-23T03:38:59;1.60;99.90
14798;DHT22;7490;63.708;20.368;2024-03-23T03:41:25;1.50;99.90
14798;DHT22;7490;63.708;20.368;2024-03-23T03:43:50;1.50;99.90
14798;DHT22;7490;63.708;20.368;2024-03-23T03:46:16;1.50;99.90
14798;DHT22;7490;63.708;20.368;2024-03-23T03:48:42;1.50;99.90
14798;DHT22;7490;63.708;20.368;2024-03-23T03:51:10;1.40;99.90
14798;DHT22;7490;63.708;20.368;2024-03-23T03:53:36;1.40;99.90
14798;DHT22;7490;63.708;20.368;2024-03-23T03:56:01;1.40;99.90
14798;DHT22;7490;63.708;20.368;2024-03-23T03:58:27;1.40;99.90
14798;DHT22;7490;63.708;20.368;2024-03-23T04:00:53;1.40;99.90
14798;DHT22;7490;63.708;20.368;2024-03-23T04:03:19;1.40;99.90
14798;DHT22;7490;63.708;20.368;2024-03-23T04:05:52;1.40;99.90
14798;DHT22;7490;63.708;20.368;2024-03-23T04:08:18;1.40;99.90
14798;DHT22;7490;63.708;20.368;2024-03-23T04:10:44;1.40;99.90
14798;DHT22;7490;63.708;20.368;2024-03-23T04:13:09;1.40;99.90
14798;DHT22;7490;63.708;20.368;2024-03-23T04:15:35;1.30;99.90
14798;DHT22;7490;63.708;20.368;2024-03-23T04:18:01;1.40;99.90
14798;DHT22;7490;63.708;20.368;2024-03-23T04:20:26;1.40;99.90
14798;DHT22;7490;63.708;20.368;2024-03-23T04:22:52;1.40;99.90
14798;DHT22;7490;63.708;20.368;2024-03-23T04:25:19;1.40;99.90
14798;DHT22;7490;63.708;20.368;2024-03-23T04:27:45;1.40;99.90
14798;DHT22;7490;63.708;20.368;2024-03-23T04:30:11;1.50;99.90
14798;DHT22;7490;63.708;20.368;2024-03-23T04:32:37;1.50;99.90
14798;DHT22;7490;63.708;20.368;2024-03-23T04:35:04;1.60;99.90
14798;DHT22;7490;63.708;20.368;2024-03-23T04:37:35;1.60;99.90
14798;DHT22;7490;63.708;20.368;2024-03-23T04:40:02;1.60;99.90
14798;DHT22;7490;63.708;20.368;2024-03-23T04:42:29;1.60;99.90
14798;DHT22;7490;63.708;20.368;2024-03-23T04:44:54;1.60;99.90
14798;DHT22;7490;63.708;20.368;2024-03-23T04:47:20;1.60;99.90
14798;DHT22;7490;63.708;20.368;2024-03-23T04:49:46;1.70;99.90
14798;DHT22;7490;63.708;20.368;2024-03-23T04:52:12;1.70;99.90
14798;DHT22;7490;63.708;20.368;2024-03-23T04:54:38;1.70;99.90
14798;DHT22;7490;63.708;20.368;2024-03-23T04:57:05;1.80;99.90
14798;DHT22;7490;63.708;20.368;2024-03-23T04:59:31;1.80;99.90
14798;DHT22;7490;63.708;20.368;2024-03-23T05:01:57;1.90;99.90
14798;DHT22;7490;63.708;20.368;2024-03-23T05:04:23;1.90;99.90
14798;DHT22;7490;63.708;20.368;2024-03-23T05:06:48;1.90;99.90
14798;DHT22;7490;63.708;20.368;2024-03-23T05:09:14;2.00;99.90
14798;DHT22;7490;63.708;20.368;2024-03-23T05:11:40;2.00;99.90
14798;DHT22;7490;63.708;20.368;2024-03-23T05:14:09;2.00;99.90
14798;DHT22;7490;63.708;20.368;2024-03-23T05:16:34;2.00;99.90
14798;DHT22;7490;63.708;20.368;2024-03-23T05:19:00;2.10;99.90
14798;DHT22;7490;63.708;20.368;2024-03-23T05:21:26;2.20;99.90
14798;DHT22;7490;63.708;20.368;2024-03-23T05:23:53;2.20;99.90
14798;DHT22;7490;63.708;20.368;2024-03-23T05:26:19;2.30;99.90
14798;DHT22;7490;63.708;20.368;2024-03-23T05:28:45;2.40;99.90
14798;DHT22;7490;63.708;20.368;2024-03-23T05:31:11;2.50;99.90
14798;DHT22;7490;63.708;20.368;2024-03-23T05:33:37;2.60;99.90
14798;DHT22;7490;63.708;20.368;2024-03-23T05:36:05;2.70;99.90
14798;DHT22;7490;63.708;20.368;2024-03-23T05:38:31;2.80;99.90
14798;DHT22;7490;63.708;20.368;2024-03-23T05:41:00;2.80;99.90
14798;DHT22;7490;63.708;20.368;2024-03-23T05:43:26;2.90;99.90
14798;DHT22;7490;63.708;20.368;2024-03-23T05:45:58;3.00;99.90
14798;DHT22;7490;63.708;20.368;2024-03-23T05:48:24;3.10;99.90
14798;DHT22;7490;63.708;20.368;2024-03-23T05:50:50;3.10;99.90
14798;DHT22;7490;63.708;20.368;2024-03-23T05:53:16;3.20;99.90
14798;DHT22;7490;63.708;20.368;2024-03-23T05:55:42;3.30;99.90
14798;DHT22;7490;63.708;20.368;2024-03-23T05:58:08;3.40;99.90
14798;DHT22;7490;63.708;20.368;2024-03-23T06:00:34;3.50;99.90
14798;DHT22;7490;63.708;20.368;2024-03-23T06:03:00;3.80;99.90
14798;DHT22;7490;63.708;20.368;2024-03-23T06:05:26;4.30;99.90
14798;DHT22;7490;63.708;20.368;2024-03-23T06:07:52;5.00;99.90
14798;DHT22;7490;63.708;20.368;2024-03-23T06:10:18;5.50;99.90
14798;DHT22;7490;63.708;20.368;2024-03-23T06:12:46;5.70;99.90
14798;DHT22;7490;63.708;20.368;2024-03-23T06:15:11;5.70;99.90
14798;DHT22;7490;63.708;20.368;2024-03-23T06:17:38;5.70;99.90
14798;DHT22;7490;63.708;20.368;2024-03-23T06:20:04;5.60;99.90
14798;DHT22;7490;63.708;20.368;2024-03-23T06:22:31;5.50;99.90
14798;DHT22;7490;63.708;20.368;2024-03-23T06:24:57;5.50;99.90
14798;DHT22;7490;63.708;20.368;2024-03-23T06:27:23;5.40;99.90
14798;DHT22;7490;63.708;20.368;2024-03-23T06:29:48;5.50;99.90
14798;DHT22;7490;63.708;20.368;2024-03-23T06:32:14;5.50;99.90
14798;DHT22;7490;63.708;20.368;2024-03-23T06:34:43;5.70;99.90
14798;DHT22;7490;63.708;20.368;2024-03-23T06:37:09;5.90;99.90
14798;DHT22;7490;63.708;20.368;2024-03-23T06:39:37;6.20;99.90
14798;DHT22;7490;63.708;20.368;2024-03-23T06:42:03;6.90;99.90
14798;DHT22;7490;63.708;20.368;2024-03-23T06:44:29;7.70;99.90
14798;DHT22;7490;63.708;20.368;2024-03-23T06:46:56;8.20;99.90
14798;DHT22;7490;63.708;20.368;2024-03-23T06:49:23;8.80;99.90
14798;DHT22;7490;63.708;20.368;2024-03-23T06:51:49;9.50;99.90
14798;DHT22;7490;63.708;20.368;2024-03-23T06:54:15;9.70;99.90
14798;DHT22;7490;63.708;20.368;2024-03-23T06:56:41;9.60;99.90
14798;DHT22;7490;63.708;20.368;2024-03-23T06:59:07;9.50;99.90
14798;DHT22;7490;63.708;20.368;2024-03-23T07:01:33;9.50;99.90
14798;DHT22;7490;63.708;20.368;2024-03-23T07:03:58;9.70;99.90
14798;DHT22;7490;63.708;20.368;2024-03-23T07:06:24;9.70;99.90
14798;DHT22;7490;63.708;20.368;2024-03-23T07:08:50;9.60;99.90
14798;DHT22;7490;63.708;20.368;2024-03-23T07:11:21;9.90;99.90
14798;DHT22;7490;63.708;20.368;2024-03-23T07:13:49;10.30;99.90
14798;DHT22;7490;63.708;20.368;2024-03-23T07:16:16;10.60;99.90
14798;DHT22;7490;63.708;20.368;2024-03-23T07:18:41;11.10;99.90
14798;DHT22;7490;63.708;20.368;2024-03-23T07:21:07;11.60;99.90
14798;DHT22;7490;63.708;20.368;2024-03-23T07:23:33;12.20;99.90
14798;DHT22;7490;63.708;20.368;2024-03-23T07:26:00;12.80;99.90
14798;DHT22;7490;63.708;20.368;2024-03-23T07:28:26;13.20;99.90
14798;DHT22;7490;63.708;20.368;2024-03-23T07:31:06;13.20;99.90
14798;DHT22;7490;63.708;20.368;2024-03-23T07:33:37;13.00;99.90
14798;DHT22;7490;63.708;20.368;2024-03-23T07:36:03;12.80;99.90
14798;DHT22;7490;63.708;20.368;2024-03-23T07:38:29;12.20;99.90
14798;DHT22;7490;63.708;20.368;2024-03-23T07:41:11;12.00;99.90
14798;DHT22;7490;63.708;20.368;2024-03-23T07:43:38;11.60;99.90
14798;DHT22;7490;63.708;20.368;2024-03-23T07:46:04;11.00;99.90
14798;DHT22;7490;63.708;20.368;2024-03-23T07:48:31;10.60;99.90
14798;DHT22;7490;63.708;20.368;2024-03-23T07:51:04;10.20;99.90
14798;DHT22;7490;63.708;20.368;2024-03-23T07:53:31;9.70;99.90
14798;DHT22;7490;63.708;20.368;2024-03-23T07:56:07;9.30;99.90
14798;DHT22;7490;63.708;20.368;2024-03-23T07:58:34;8.90;99.90
14798;DHT22;7490;63.708;20.368;2024-03-23T08:01:07;8.60;99.90
14798;DHT22;7490;63.708;20.368;2024-03-23T08:03:37;8.40;99.90
14798;DHT22;7490;63.708;20.368;2024-03-23T08:06:07;8.30;99.90
14798;DHT22;7490;63.708;20.368;2024-03-23T08:08:34;8.30;99.90
14798;DHT22;7490;63.708;20.368;2024-03-23T08:10:59;8.30;99.90
14798;DHT22;7490;63.708;20.368;2024-03-23T08:13:26;8.20;99.90
14798;DHT22;7490;63.708;20.368;2024-03-23T08:15:51;8.10;99.90
14798;DHT22;7490;63.708;20.368;2024-03-23T08:18:17;8.10;99.90
14798;DHT22;7490;63.708;20.368;2024-03-23T08:20:43;8.00;99.90
14798;DHT22;7490;63.708;20.368;2024-03-23T08:23:09;7.60;99.90
14798;DHT22;7490;63.708;20.368;2024-03-23T08:25:35;7.40;99.90
14798;DHT22;7490;63.708;20.368;2024-03-23T08:28:01;7.10;99.90
14798;DHT22;7490;63.708;20.368;2024-03-23T08:30:27;7.00;99.90
14798;DHT22;7490;63.708;20.368;2024-03-23T08:32:53;6.70;99.90
14798;DHT22;7490;63.708;20.368;2024-03-23T08:35:19;6.60;99.90
14798;DHT22;7490;63.708;20.368;2024-03-23T08:37:44;6.60;99.90
14798;DHT22;7490;63.708;20.368;2024-03-23T08:40:10;6.80;99.90
14798;DHT22;7490;63.708;20.368;2024-03-23T08:42:36;6.80;99.90
14798;DHT22;7490;63.708;20.368;2024-03-23T08:45:02;6.80;99.90
14798;DHT22;7490;63.708;20.368;2024-03-23T08:47:27;6.50;99.90
14798;DHT22;7490;63.708;20.368;2024-03-23T08:49:53;6.40;99.90
14798;DHT22;7490;63.708;20.368;2024-03-23T08:52:19;6.40;99.90
14798;DHT22;7490;63.708;20.368;2024-03-23T08:54:44;6.50;99.90
14798;DHT22;7490;63.708;20.368;2024-03-23T08:57:11;6.50;99.90
14798;DHT22;7490;63.708;20.368;2024-03-23T08:59:37;6.60;99.90
14798;DHT22;7490;63.708;20.368;2024-03-23T09:02:03;6.60;99.90
14798;DHT22;7490;63.708;20.368;2024-03-23T09:04:29;6.40;99.90
14798;DHT22;7490;63.708;20.368;2024-03-23T09:06:55;6.40;99.90
14798;DHT22;7490;63.708;20.368;2024-03-23T09:09:22;6.50;99.90
14798;DHT22;7490;63.708;20.368;2024-03-23T09:11:48;6.50;99.90
14798;DHT22;7490;63.708;20.368;2024-03-23T09:14:14;6.50;99.90
14798;DHT22;7490;63.708;20.368;2024-03-23T09:16:39;6.60;99.90
14798;DHT22;7490;63.708;20.368;2024-03-23T09:19:05;6.80;99.90
14798;DHT22;7490;63.708;20.368;2024-03-23T09:21:30;7.10;99.90
14798;DHT22;7490;63.708;20.368;2024-03-23T09:23:56;7.20;99.90
14798;DHT22;7490;63.708;20.368;2024-03-23T09:26:21;7.10;99.90
14798;DHT22;7490;63.708;20.368;2024-03-23T09:28:50;7.10;99.90
14798;DHT22;7490;63.708;20.368;2024-03-23T09:31:17;7.10;99.90
14798;DHT22;7490;63.708;20.368;2024-03-23T09:33:43;7.20;99.90
14798;DHT22;7490;63.708;20.368;2024-03-23T09:36:09;7.20;99.90
14798;DHT22;7490;63.708;20.368;2024-03-23T09:38:35;7.20;99.90
14798;DHT22;7490;63.708;20.368;2024-03-23T09:41:06;7.00;99.90
14798;DHT22;7490;63.708;20.368;2024-03-23T09:43:32;6.70;99.90
14798;DHT22;7490;63.708;20.368;2024-03-23T09:45:57;6.50;99.90
14798;DHT22;7490;63.708;20.368;2024-03-23T09:48:23;6.30;99.90
14798;DHT22;7490;63.708;20.368;2024-03-23T09:50:49;6.20;99.90
14798;DHT22;7490;63.708;20.368;2024-03-23T09:53:15;6.00;99.90
14798;DHT22;7490;63.708;20.368;2024-03-23T09:55:42;5.80;99.90
14798;DHT22;7490;63.708;20.368;2024-03-23T09:58:08;5.60;99.90
14798;DHT22;7490;63.708;20.368;2024-03-23T10:00:38;5.50;99.90
14798;DHT22;7490;63.708;20.368;2024-03-23T10:03:04;5.50;99.90
14798;DHT22;7490;63.708;20.368;2024-03-23T10:05:32;5.40;99.90
14798;DHT22;7490;63.708;20.368;2024-03-23T10:10:43;5.30;99.90
14798;DHT22;7490;63.708;20.368;2024-03-23T10:13:09;5.50;99.90
14798;DHT22;7490;63.708;20.368;2024-03-23T10:15:36;5.50;99.90
14798;DHT22;7490;63.708;20.368;2024-03-23T10:18:22;5.60;99.90
14798;DHT22;7490;63.708;20.368;2024-03-23T10:21:10;5.80;99.90
14798;DHT22;7490;63.708;20.368;2024-03-23T10:23:40;5.70;99.90
14798;DHT22;7490;63.708;20.368;2024-03-23T10:26:15;5.50;99.90
14798;DHT22;7490;63.708;20.368;2024-03-23T10:29:00;5.60;99.90
14798;DHT22;7490;63.708;20.368;2024-03-23T10:31:36;5.60;99.90
14798;DHT22;7490;63.708;20.368;2024-03-23T10:34:03;5.40;99.90
14798;DHT22;7490;63.708;20.368;2024-03-23T10:36:30;5.30;99.90
14798;DHT22;7490;63.708;20.368;2024-03-23T10:38:56;5.20;99.90
14798;DHT22;7490;63.708;20.368;2024-03-23T10:41:27;5.20;99.90
14798;DHT22;7490;63.708;20.368;2024-03-23T10:43:53;5.20;99.90
14798;DHT22;7490;63.708;20.368;2024-03-23T10:46:20;5.20;99.90
14798;DHT22;7490;63.708;20.368;2024-03-23T10:48:46;5.30;99.90
14798;DHT22;7490;63.708;20.368;2024-03-23T10:51:13;5.30;99.90
14798;DHT22;7490;63.708;20.368;2024-03-23T10:53:39;5.30;99.90
14798;DHT22;7490;63.708;20.368;2024-03-23T10:56:06;5.20;99.90
14798;DHT22;7490;63.708;20.368;2024-03-23T10:58:38;5.20;99.90
14798;DHT22;7490;63.708;20.368;2024-03-23T11:01:04;5.20;99.90
14798;DHT22;7490;63.708;20.368;2024-03-23T11:03:34;5.20;99.90
14798;DHT22;7490;63.708;20.368;2024-03-23T11:06:05;5.30;99.90
14798;DHT22;7490;63.708;20.368;2024-03-23T11:08:33;5.40;99.90
14798;DHT22;7490;63.708;20.368;2024-03-23T11:11:17;5.30;99.90
14798;DHT22;7490;63.708;20.368;2024-03-23T11:13:48;5.20;99.90
14798;DHT22;7490;63.708;20.368;2024-03-23T11:16:22;5.10;99.90
14798;DHT22;7490;63.708;20.368;2024-03-23T11:18:49;5.20;99.90
14798;DHT22;7490;63.708;20.368;2024-03-23T11:21:52;5.30;99.90
14798;DHT22;7490;63.708;20.368;2024-03-23T11:24:21;5.30;99.90
14798;DHT22;7490;63.708;20.368;2024-03-23T11:26:50;5.20;99.90
14798;DHT22;7490;63.708;20.368;2024-03-23T11:29:17;5.30;99.90
14798;DHT22;7490;63.708;20.368;2024-03-23T11:31:47;5.40;99.90
14798;DHT22;7490;63.708;20.368;2024-03-23T11:34:13;5.40;99.90
14798;DHT22;7490;63.708;20.368;2024-03-23T11:36:40;5.40;99.90
14798;DHT22;7490;63.708;20.368;2024-03-23T11:39:16;5.40;99.90
14798;DHT22;7490;63.708;20.368;2024-03-23T11:41:49;5.40;99.90
14798;DHT22;7490;63.708;20.368;2024-03-23T11:44:26;5.40;99.90
14798;DHT22;7490;63.708;20.368;2024-03-23T11:46:52;5.40;99.90
14798;DHT22;7490;63.708;20.368;2024-03-23T11:49:21;5.50;99.90
14798;DHT22;7490;63.708;20.368;2024-03-23T11:51:51;5.60;99.90
14798;DHT22;7490;63.708;20.368;2024-03-23T11:54:20;5.60;99.90
14798;DHT22;7490;63.708;20.368;2024-03-23T11:57:00;5.60;99.90
14798;DHT22;7490;63.708;20.368;2024-03-23T11:59:39;5.50;99.90
14798;DHT22;7490;63.708;20.368;2024-03-23T12:02:12;5.50;99.90
14798;DHT22;7490;63.708;20.368;2024-03-23T12:04:42;5.30;99.90
14798;DHT22;7490;63.708;20.368;2024-03-23T12:07:12;5.40;99.90
14798;DHT22;7490;63.708;20.368;2024-03-23T12:09:38;5.50;99.90
14798;DHT22;7490;63.708;20.368;2024-03-23T12:14:43;5.20;99.90
14798;DHT22;7490;63.708;20.368;2024-03-23T12:17:14;5.10;99.90
14798;DHT22;7490;63.708;20.368;2024-03-23T12:19:40;4.90;99.90
14798;DHT22;7490;63.708;20.368;2024-03-23T12:22:10;4.60;99.90
14798;DHT22;7490;63.708;20.368;2024-03-23T12:24:35;4.50;99.90
14798;DHT22;7490;63.708;20.368;2024-03-23T12:27:05;4.40;99.90
14798;DHT22;7490;63.708;20.368;2024-03-23T12:29:31;4.40;99.90
14798;DHT22;7490;63.708;20.368;2024-03-23T12:32:00;4.30;99.90
14798;DHT22;7490;63.708;20.368;2024-03-23T12:34:26;4.30;99.90
14798;DHT22;7490;63.708;20.368;2024-03-23T12:36:52;4.20;99.90
14798;DHT22;7490;63.708;20.368;2024-03-23T12:39:17;4.10;99.90
14798;DHT22;7490;63.708;20.368;2024-03-23T12:41:44;4.00;99.90
14798;DHT22;7490;63.708;20.368;2024-03-23T12:44:09;4.10;99.90
14798;DHT22;7490;63.708;20.368;2024-03-23T12:46:37;4.10;99.90
14798;DHT22;7490;63.708;20.368;2024-03-23T12:49:04;4.10;99.90
14798;DHT22;7490;63.708;20.368;2024-03-23T12:51:29;4.10;99.90
14798;DHT22;7490;63.708;20.368;2024-03-23T12:53:55;4.10;99.90
14798;DHT22;7490;63.708;20.368;2024-03-23T12:56:20;4.20;99.90
14798;DHT22;7490;63.708;20.368;2024-03-23T12:58:46;4.30;99.90
14798;DHT22;7490;63.708;20.368;2024-03-23T13:01:19;4.40;99.90
14798;DHT22;7490;63.708;20.368;2024-03-23T13:03:48;4.60;99.90
14798;DHT22;7490;63.708;20.368;2024-03-23T13:06:14;4.70;99.90
14798;DHT22;7490;63.708;20.368;2024-03-23T13:08:40;4.70;99.90
14798;DHT22;7490;63.708;20.368;2024-03-23T13:11:07;4.70;99.90
14798;DHT22;7490;63.708;20.368;2024-03-23T13:13:34;4.60;99.90
14798;DHT22;7490;63.708;20.368;2024-03-23T13:16:00;4.50;99.90
14798;DHT22;7490;63.708;20.368;2024-03-23T13:18:26;4.40;99.90
14798;DHT22;7490;63.708;20.368;2024-03-23T13:20:51;4.40;99.90
14798;DHT22;7490;63.708;20.368;2024-03-23T13:23:17;4.30;99.90
14798;DHT22;7490;63.708;20.368;2024-03-23T13:25:52;4.40;99.90
14798;DHT22;7490;63.708;20.368;2024-03-23T13:28:19;4.30;99.90
14798;DHT22;7490;63.708;20.368;2024-03-23T13:30:55;4.30;99.90
14798;DHT22;7490;63.708;20.368;2024-03-23T13:33:21;4.20;99.90
14798;DHT22;7490;63.708;20.368;2024-03-23T13:38:16;4.10;99.90
14798;DHT22;7490;63.708;20.368;2024-03-23T13:41:00;4.10;99.90
14798;DHT22;7490;63.708;20.368;2024-03-23T13:43:27;4.10;99.90
14798;DHT22;7490;63.708;20.368;2024-03-23T13:45:55;4.00;99.90
14798;DHT22;7490;63.708;20.368;2024-03-23T13:48:26;4.00;99.90
14798;DHT22;7490;63.708;20.368;2024-03-23T13:51:02;4.00;99.90
14798;DHT22;7490;63.708;20.368;2024-03-23T13:53:29;3.90;99.90
14798;DHT22;7490;63.708;20.368;2024-03-23T13:55:55;3.90;99.90
14798;DHT22;7490;63.708;20.368;2024-03-23T13:58:21;3.80;99.90
14798;DHT22;7490;63.708;20.368;2024-03-23T14:00:47;3.80;99.90
14798;DHT22;7490;63.708;20.368;2024-03-23T14:03:13;3.80;99.90
14798;DHT22;7490;63.708;20.368;2024-03-23T14:05:40;3.70;99.90
14798;DHT22;7490;63.708;20.368;2024-03-23T14:10:32;3.50;99.90
14798;DHT22;7490;63.708;20.368;2024-03-23T14:12:58;3.50;99.90
14798;DHT22;7490;63.708;20.368;2024-03-23T14:15:28;3.50;99.90
14798;DHT22;7490;63.708;20.368;2024-03-23T14:17:53;3.50;99.90
14798;DHT22;7490;63.708;20.368;2024-03-23T14:20:20;3.60;99.90
14798;DHT22;7490;63.708;20.368;2024-03-23T14:22:47;3.70;99.90
14798;DHT22;7490;63.708;20.368;2024-03-23T14:25:13;3.70;99.90
14798;DHT22;7490;63.708;20.368;2024-03-23T14:27:38;3.60;99.90
14798;DHT22;7490;63.708;20.368;2024-03-23T14:30:04;3.60;99.90
14798;DHT22;7490;63.708;20.368;2024-03-23T14:32:30;3.50;99.90
14798;DHT22;7490;63.708;20.368;2024-03-23T14:35:02;3.50;99.90
14798;DHT22;7490;63.708;20.368;2024-03-23T14:37:28;3.30;99.90
14798;DHT22;7490;63.708;20.368;2024-03-23T14:39:55;3.30;99.90
14798;DHT22;7490;63.708;20.368;2024-03-23T14:42:22;3.30;99.90
14798;DHT22;7490;63.708;20.368;2024-03-23T14:44:47;3.20;99.90
14798;DHT22;7490;63.708;20.368;2024-03-23T14:47:13;3.10;99.90
14798;DHT22;7490;63.708;20.368;2024-03-23T14:49:39;3.10;99.90
14798;DHT22;7490;63.708;20.368;2024-03-23T14:52:04;3.00;99.90
14798;DHT22;7490;63.708;20.368;2024-03-23T14:54:30;2.90;99.90
14798;DHT22;7490;63.708;20.368;2024-03-23T14:56:56;2.90;99.90
14798;DHT22;7490;63.708;20.368;2024-03-23T14:59:24;2.80;99.90
14798;DHT22;7490;63.708;20.368;2024-03-23T15:01:49;2.80;99.90
14798;DHT22;7490;63.708;20.368;2024-03-23T15:04:15;2.70;99.90
14798;DHT22;7490;63.708;20.368;2024-03-23T15:06:40;2.70;99.90
14798;DHT22;7490;63.708;20.368;2024-03-23T15:09:07;2.70;99.90
14798;DHT22;7490;63.708;20.368;2024-03-23T15:11:36;2.70;99.90
14798;DHT22;7490;63.708;20.368;2024-03-23T15:14:02;2.60;99.90
14798;DHT22;7490;63.708;20.368;2024-03-23T15:16:28;2.70;99.90
14798;DHT22;7490;63.708;20.368;2024-03-23T15:18:53;2.70;99.90
14798;DHT22;7490;63.708;20.368;2024-03-23T15:21:19;2.60;99.90
14798;DHT22;7490;63.708;20.368;2024-03-23T15:23:47;2.60;99.90
14798;DHT22;7490;63.708;20.368;2024-03-23T15:26:13;2.60;99.90
14798;DHT22;7490;63.708;20.368;2024-03-23T15:28:39;2.50;99.90
14798;DHT22;7490;63.708;20.368;2024-03-23T15:31:27;2.50;99.90
14798;DHT22;7490;63.708;20.368;2024-03-23T15:33:53;2.40;99.90
14798;DHT22;7490;63.708;20.368;2024-03-23T15:36:19;2.30;99.90
14798;DHT22;7490;63.708;20.368;2024-03-23T15:38:44;2.30;99.90
14798;DHT22;7490;63.708;20.368;2024-03-23T15:41:10;2.20;99.90
14798;DHT22;7490;63.708;20.368;2024-03-23T15:43:36;2.10;99.90
14798;DHT22;7490;63.708;20.368;2024-03-23T15:46:04;2.00;99.90
14798;DHT22;7490;63.708;20.368;2024-03-23T15:48:31;1.90;99.90
14798;DHT22;7490;63.708;20.368;2024-03-23T15:51:02;1.80;99.90
14798;DHT22;7490;63.708;20.368;2024-03-23T15:53:28;1.70;99.90
14798;DHT22;7490;63.708;20.368;2024-03-23T15:55:58;1.60;99.90
14798;DHT22;7490;63.708;20.368;2024-03-23T15:58:24;1.60;99.90
14798;DHT22;7490;63.708;20.368;2024-03-23T16:00:57;1.60;99.90
14798;DHT22;7490;63.708;20.368;2024-03-23T16:03:23;1.50;99.90
14798;DHT22;7490;63.708;20.368;2024-03-23T16:06:03;1.40;99.90
14798;DHT22;7490;63.708;20.368;2024-03-23T16:08:29;1.30;99.90
14798;DHT22;7490;63.708;20.368;2024-03-23T16:11:03;1.10;99.90
14798;DHT22;7490;63.708;20.368;2024-03-23T16:13:29;1.00;99.90
14798;DHT22;7490;63.708;20.368;2024-03-23T16:15:56;1.00;99.90
14798;DHT22;7490;63.708;20.368;2024-03-23T16:18:22;0.90;99.90
14798;DHT22;7490;63.708;20.368;2024-03-23T16:20:59;0.90;99.90
14798;DHT22;7490;63.708;20.368;2024-03-23T16:23:25;0.80;99.90
14798;DHT22;7490;63.708;20.368;2024-03-23T16:25:53;0.70;99.90
14798;DHT22;7490;63.708;20.368;2024-03-23T16:33:23;0.80;99.90
14798;DHT22;7490;63.708;20.368;2024-03-23T16:36:15;0.80;99.90
14798;DHT22;7490;63.708;20.368;2024-03-23T16:38:43;0.90;99.90
14798;DHT22;7490;63.708;20.368;2024-03-23T16:41:12;0.90;99.90
14798;DHT22;7490;63.708;20.368;2024-03-23T16:43:39;0.90;99.90
14798;DHT22;7490;63.708;20.368;2024-03-23T16:46:06;0.90;99.90
14798;DHT22;7490;63.708;20.368;2024-03-23T16:48:35;0.90;99.90
14798;DHT22;7490;63.708;20.368;2024-03-23T16:51:01;0.90;99.90
14798;DHT22;7490;63.708;20.368;2024-03-23T16:53:29;0.90;99.90
14798;DHT22;7490;63.708;20.368;2024-03-23T16:56:00;0.90;99.90